Time;durP1;ratioP1;P1;durP2;ratioP2;P2;SDS_P1;SDS_P2;PMS_P1;PMS_P2;Temp;Humidity;BMP_temperature;BMP_pressure;BME280_temperature;BME280_humidity;BME280_pressure;Samples;Min_cycle;Max_cycle;Signal;HPM_P1;HPM_P2
2021/09/12 00:01:40;;;;;;;15.60;7.50;;;17.10;99.10;;;;;;5056980;28;20169;-79
2021/09/12 00:04:06;;;;;;;9.43;6.40;;;17.10;99.10;;;;;;5057357;28;20762;-79
2021/09/12 00:06:32;;;;;;;11.80;7.50;;;17.00;99.10;;;;;;5056563;28;20742;-79
2021/09/12 00:08:58;;;;;;;20.50;8.07;;;17.00;99.10;;;;;;5057377;28;20566;-80
2021/09/12 00:11:23;;;;;;;12.50;6.77;;;16.90;99.10;;;;;;5056714;28;20450;-80
2021/09/12 00:13:49;;;;;;;15.03;6.90;;;16.90;99.10;;;;;;5056717;28;20412;-79
2021/09/12 00:16:15;;;;;;;11.23;6.93;;;16.90;99.10;;;;;;5056201;28;20205;-79
2021/09/12 00:18:41;;;;;;;10.00;6.50;;;16.90;99.10;;;;;;5056356;28;20264;-79
2021/09/12 00:21:06;;;;;;;13.70;8.27;;;16.90;99.10;;;;;;5056824;28;20169;-80
2021/09/12 00:23:32;;;;;;;13.03;6.43;;;16.90;99.10;;;;;;5056532;28;20416;-79
2021/09/12 00:25:58;;;;;;;15.23;7.47;;;16.80;99.10;;;;;;5056337;28;20189;-79
2021/09/12 00:28:24;;;;;;;18.23;7.83;;;16.80;99.10;;;;;;5057026;28;20534;-79
2021/09/12 00:30:49;;;;;;;14.37;7.90;;;16.80;99.10;;;;;;5056363;28;20251;-80
2021/09/12 00:33:15;;;;;;;16.30;8.40;;;16.70;99.10;;;;;;5056109;28;20535;-80
2021/09/12 00:35:41;;;;;;;16.40;8.80;;;16.80;99.10;;;;;;5055860;28;20813;-79
2021/09/12 00:38:08;;;;;;;19.87;10.00;;;16.80;99.10;;;;;;5055988;28;20227;-80
2021/09/12 00:40:34;;;;;;;19.35;9.55;;;16.80;99.10;;;;;;5056131;28;20740;-79
2021/09/12 00:43:00;;;;;;;23.73;10.93;;;16.80;99.10;;;;;;5055991;28;20720;-80
2021/09/12 00:45:26;;;;;;;22.33;10.07;;;16.80;99.10;;;;;;5055745;28;20275;-79
2021/09/12 00:47:53;;;;;;;28.70;12.80;;;16.80;99.10;;;;;;5055749;28;20421;-79
2021/09/12 00:50:19;;;;;;;22.55;11.13;;;16.70;99.10;;;;;;5055399;28;20418;-79
2021/09/12 00:52:46;;;;;;;26.05;12.35;;;16.70;99.10;;;;;;5055310;28;20220;-79
2021/09/12 00:55:13;;;;;;;23.08;11.73;;;16.80;99.10;;;;;;5055487;28;20277;-79
2021/09/12 00:57:42;;;;;;;24.85;11.35;;;16.70;99.10;;;;;;5055382;28;20204;-79
2021/09/12 01:00:08;;;;;;;25.45;11.48;;;16.60;99.10;;;;;;5055551;28;20169;-79
2021/09/12 01:02:34;;;;;;;22.67;11.63;;;16.50;99.10;;;;;;5055272;28;20180;-79
2021/09/12 01:04:59;;;;;;;21.83;9.77;;;16.60;99.10;;;;;;5054791;28;20581;-79
2021/09/12 01:07:25;;;;;;;23.50;11.37;;;16.60;99.10;;;;;;5055220;28;20241;-79
2021/09/12 01:09:51;;;;;;;22.47;10.27;;;16.60;99.10;;;;;;5055676;28;20173;-79
2021/09/12 01:12:18;;;;;;;19.48;10.68;;;16.60;99.10;;;;;;5055571;28;20263;-80
2021/09/12 01:14:44;;;;;;;15.25;9.35;;;16.50;99.10;;;;;;5055304;28;20221;-79
2021/09/12 01:17:09;;;;;;;20.00;10.63;;;16.50;99.10;;;;;;5054819;28;20203;-79
2021/09/12 01:19:35;;;;;;;23.73;10.70;;;16.40;99.10;;;;;;5055161;28;20415;-80
2021/09/12 01:22:04;;;;;;;21.97;9.70;;;16.50;99.10;;;;;;5055093;28;20415;-80
2021/09/12 01:24:32;;;;;;;19.20;9.38;;;16.50;99.10;;;;;;5056517;28;20641;-80
2021/09/12 01:26:58;;;;;;;20.10;9.60;;;16.50;99.10;;;;;;5055096;28;20664;-80
2021/09/12 01:29:24;;;;;;;14.82;8.30;;;16.40;99.10;;;;;;5055805;28;20173;-80
2021/09/12 01:31:50;;;;;;;15.73;8.33;;;16.40;99.10;;;;;;5056523;28;20222;-80
2021/09/12 01:34:16;;;;;;;21.15;8.13;;;16.40;99.10;;;;;;5055342;28;20486;-80
2021/09/12 01:36:43;;;;;;;13.27;7.63;;;16.40;99.10;;;;;;5055299;28;20290;-80
2021/09/12 01:39:09;;;;;;;17.25;7.30;;;16.40;99.10;;;;;;5055284;28;20440;-80
2021/09/12 01:41:35;;;;;;;23.52;8.75;;;16.40;99.10;;;;;;5055062;28;20231;-80
2021/09/12 01:44:03;;;;;;;11.90;7.03;;;16.30;99.10;;;;;;5054330;28;20173;-80
2021/09/12 01:46:28;;;;;;;19.98;9.15;;;16.30;99.10;;;;;;5054884;28;20432;-80
2021/09/12 01:48:56;;;;;;;17.03;9.30;;;16.30;99.10;;;;;;5054898;28;20188;-79
2021/09/12 01:51:22;;;;;;;15.75;9.20;;;16.30;99.10;;;;;;5054871;28;20427;-80
2021/09/12 01:53:49;;;;;;;27.35;9.00;;;16.10;99.10;;;;;;5054496;28;20188;-80
2021/09/12 01:56:15;;;;;;;13.93;8.20;;;16.10;99.10;;;;;;5054215;28;20201;-80
2021/09/12 01:58:41;;;;;;;21.50;12.35;;;16.10;99.10;;;;;;5054321;28;20176;-80
2021/09/12 02:01:07;;;;;;;14.37;6.70;;;16.10;99.10;;;;;;5054206;28;20169;-80
2021/09/12 02:03:33;;;;;;;17.25;9.63;;;16.10;99.10;;;;;;5053447;28;20477;-79
2021/09/12 02:06:00;;;;;;;16.80;9.73;;;16.10;99.10;;;;;;5054374;28;20193;-79
2021/09/12 02:08:26;;;;;;;24.10;8.90;;;16.00;99.10;;;;;;5054043;28;20173;-79
2021/09/12 02:10:51;;;;;;;23.58;8.70;;;16.00;99.10;;;;;;5054219;28;20693;-79
2021/09/12 02:13:18;;;;;;;13.43;7.80;;;16.00;99.10;;;;;;5053954;28;20196;-79
2021/09/12 02:15:44;;;;;;;15.63;8.75;;;16.00;99.10;;;;;;5053716;28;20507;-79
2021/09/12 02:18:10;;;;;;;14.50;8.00;;;16.00;99.10;;;;;;5053803;28;20926;-79
2021/09/12 02:20:36;;;;;;;14.52;7.70;;;16.00;99.10;;;;;;5053903;28;20407;-80
2021/09/12 02:23:02;;;;;;;10.90;6.87;;;16.00;99.10;;;;;;5053788;28;20191;-80
2021/09/12 02:25:27;;;;;;;13.97;7.33;;;16.00;99.10;;;;;;5053872;28;20188;-79
2021/09/12 02:27:53;;;;;;;12.30;7.43;;;16.00;99.10;;;;;;5053618;28;20412;-80
2021/09/12 02:30:19;;;;;;;12.43;7.00;;;15.90;99.10;;;;;;5053975;28;20184;-80
2021/09/12 02:32:45;;;;;;;20.55;7.72;;;15.90;99.10;;;;;;5053648;28;20177;-79
2021/09/12 02:35:11;;;;;;;18.60;8.97;;;15.90;99.10;;;;;;5053316;28;20250;-80
2021/09/12 02:37:37;;;;;;;12.50;8.00;;;15.90;99.10;;;;;;5053205;28;20505;-79
2021/09/12 02:40:04;;;;;;;14.87;8.07;;;15.80;99.10;;;;;;5053753;28;20412;-80
2021/09/12 02:42:29;;;;;;;12.55;7.03;;;15.80;99.10;;;;;;5053661;28;20204;-80
2021/09/12 02:44:55;;;;;;;14.87;8.00;;;15.80;99.10;;;;;;5053619;28;20200;-80
2021/09/12 02:47:21;;;;;;;12.53;7.50;;;15.80;99.10;;;;;;5053561;28;20415;-80
2021/09/12 02:49:47;;;;;;;21.03;8.57;;;15.80;99.10;;;;;;5053725;28;20443;-79
2021/09/12 02:52:13;;;;;;;15.80;7.53;;;15.90;99.10;;;;;;5053556;28;20455;-79
2021/09/12 02:54:38;;;;;;;11.50;6.70;;;15.80;99.10;;;;;;5052705;28;20450;-79
2021/09/12 02:57:05;;;;;;;13.40;7.63;;;15.90;99.10;;;;;;5053461;28;20509;-79
2021/09/12 02:59:31;;;;;;;13.50;6.78;;;15.90;99.10;;;;;;5053146;28;20737;-79
2021/09/12 03:01:57;;;;;;;18.98;8.68;;;15.80;99.10;;;;;;5053372;28;20201;-79
2021/09/12 03:04:24;;;;;;;18.30;9.13;;;15.80;99.10;;;;;;5053403;28;20196;-79
2021/09/12 03:06:50;;;;;;;18.38;9.82;;;15.80;99.10;;;;;;5053586;28;20750;-79
2021/09/12 03:09:16;;;;;;;19.00;9.52;;;15.80;99.10;;;;;;5052818;28;20258;-79
2021/09/12 03:11:42;;;;;;;22.03;10.60;;;15.80;99.10;;;;;;5053207;28;20169;-79
2021/09/12 03:14:24;;;;;;;16.70;9.33;;;15.70;99.10;;;;;;5053113;28;20418;-79
2021/09/12 03:16:50;;;;;;;16.85;9.02;;;15.80;99.10;;;;;;5056529;28;20443;-79
2021/09/12 03:19:16;;;;;;;18.80;9.20;;;15.80;99.10;;;;;;5057145;28;20165;-79
2021/09/12 03:21:43;;;;;;;16.00;8.15;;;15.80;99.10;;;;;;5057272;28;20169;-79
2021/09/12 03:24:09;;;;;;;15.80;7.75;;;15.80;99.10;;;;;;5057255;28;20223;-79
2021/09/12 03:26:35;;;;;;;13.65;8.43;;;15.80;99.10;;;;;;5056886;28;20197;-80
2021/09/12 03:29:01;;;;;;;15.32;7.55;;;15.80;99.10;;;;;;5056726;28;20729;-79
2021/09/12 03:31:27;;;;;;;14.13;7.87;;;15.70;99.10;;;;;;5056810;28;20196;-80
2021/09/12 03:33:52;;;;;;;19.30;5.90;;;15.70;99.10;;;;;;5056561;28;20487;-79
2021/09/12 03:36:18;;;;;;;9.60;5.87;;;15.70;99.10;;;;;;5056362;28;20197;-79
2021/09/12 03:38:44;;;;;;;10.87;6.07;;;15.70;99.10;;;;;;5056825;28;20229;-79
2021/09/12 03:41:10;;;;;;;11.60;6.40;;;15.70;99.10;;;;;;5056418;28;20272;-79
2021/09/12 03:43:36;;;;;;;14.90;7.67;;;15.60;99.10;;;;;;5056470;28;20419;-79
2021/09/12 03:46:01;;;;;;;12.50;7.03;;;15.60;99.10;;;;;;5055913;28;20185;-79
2021/09/12 03:48:27;;;;;;;18.23;6.73;;;15.50;99.10;;;;;;5056536;28;20418;-79
2021/09/12 03:50:53;;;;;;;14.75;8.60;;;15.50;99.10;;;;;;5056459;28;20408;-79
2021/09/12 03:53:20;;;;;;;17.30;8.00;;;15.50;99.10;;;;;;5056027;28;20176;-79
2021/09/12 03:55:45;;;;;;;15.77;8.07;;;15.50;99.10;;;;;;5056569;28;20427;-79
2021/09/12 03:58:11;;;;;;;14.30;7.60;;;15.50;99.10;;;;;;5056506;28;20201;-79
2021/09/12 04:00:37;;;;;;;16.17;7.90;;;15.50;99.10;;;;;;5056314;28;20403;-79
2021/09/12 04:03:03;;;;;;;21.77;10.10;;;15.50;99.10;;;;;;5056134;28;20255;-79
2021/09/12 04:05:29;;;;;;;24.70;10.97;;;15.40;99.10;;;;;;5056443;28;20284;-79
2021/09/12 04:07:55;;;;;;;21.07;10.20;;;15.40;99.10;;;;;;5056414;28;20462;-79
2021/09/12 04:10:25;;;;;;;22.50;11.63;;;15.40;99.10;;;;;;5056353;28;20954;-79
2021/09/12 04:12:51;;;;;;;26.45;12.55;;;15.40;99.10;;;;;;5056281;28;20415;-79
2021/09/12 04:15:16;;;;;;;23.13;12.00;;;15.40;99.10;;;;;;5056146;28;20189;-80
2021/09/12 04:17:42;;;;;;;24.90;11.10;;;15.30;99.10;;;;;;5055955;28;20193;-79
2021/09/12 04:20:09;;;;;;;23.60;13.10;;;15.30;99.10;;;;;;5055546;28;20170;-79
2021/09/12 04:22:35;;;;;;;21.70;11.43;;;15.30;99.10;;;;;;5058313;28;20180;-80
2021/09/12 04:25:01;;;;;;;28.63;14.30;;;15.30;99.10;;;;;;5058276;28;20185;-82
2021/09/12 04:27:27;;;;;;;27.83;13.18;;;15.30;99.10;;;;;;5057243;28;20223;-80
2021/09/12 04:29:53;;;;;;;30.20;12.87;;;15.20;99.10;;;;;;5058277;28;20177;-80
2021/09/12 04:32:19;;;;;;;30.27;14.10;;;15.20;99.10;;;;;;5061322;28;20232;-80
2021/09/12 04:34:47;;;;;;;24.27;11.43;;;15.20;99.10;;;;;;5059006;28;20197;-82
2021/09/12 04:37:13;;;;;;;32.38;13.15;;;15.30;99.10;;;;;;5058876;28;20287;-81
2021/09/12 04:39:39;;;;;;;26.77;12.93;;;15.30;99.10;;;;;;5058383;28;20170;-83
2021/09/12 04:42:05;;;;;;;32.00;12.40;;;15.30;99.10;;;;;;5058695;28;20181;-81
2021/09/12 04:44:31;;;;;;;28.53;12.40;;;15.20;99.10;;;;;;5059135;28;20440;-81
2021/09/12 04:46:56;;;;;;;25.00;12.48;;;15.30;99.10;;;;;;5060362;28;20442;-82
2021/09/12 04:49:22;;;;;;;33.17;12.97;;;15.20;99.10;;;;;;5058970;28;20173;-82
2021/09/12 04:51:48;;;;;;;26.83;11.67;;;15.20;99.10;;;;;;5058609;28;20416;-82
2021/09/12 04:54:14;;;;;;;25.30;11.80;;;15.30;99.10;;;;;;5058821;28;20256;-80
2021/09/12 04:56:40;;;;;;;30.33;13.00;;;15.20;99.10;;;;;;5058089;28;20455;-80
2021/09/12 04:59:05;;;;;;;22.70;11.70;;;15.20;99.10;;;;;;5057619;28;20771;-80
2021/09/12 05:01:32;;;;;;;29.37;12.20;;;15.20;99.10;;;;;;5056976;28;20465;-80
2021/09/12 05:03:59;;;;;;;21.20;10.40;;;15.20;99.10;;;;;;5057262;28;20170;-80
2021/09/12 05:06:25;;;;;;;25.80;11.75;;;15.20;99.10;;;;;;5057925;28;20600;-81
2021/09/12 05:08:51;;;;;;;19.93;10.30;;;15.30;99.10;;;;;;5057261;28;20169;-81
2021/09/12 05:11:17;;;;;;;28.63;11.07;;;15.30;99.10;;;;;;5057299;28;20260;-81
2021/09/12 05:13:42;;;;;;;22.30;10.93;;;15.30;99.10;;;;;;5057595;28;20170;-80
2021/09/12 05:16:08;;;;;;;19.57;10.17;;;15.30;99.10;;;;;;5056477;28;20459;-80
2021/09/12 05:18:34;;;;;;;25.60;11.33;;;15.30;99.10;;;;;;5057216;28;20173;-80
2021/09/12 05:20:59;;;;;;;20.80;10.97;;;15.30;99.10;;;;;;5056825;28;20183;-80
2021/09/12 05:23:26;;;;;;;20.13;10.10;;;15.20;99.10;;;;;;5056806;28;20180;-80
2021/09/12 05:25:52;;;;;;;18.13;9.85;;;15.20;99.10;;;;;;5056334;28;20228;-80
2021/09/12 05:28:18;;;;;;;18.17;8.87;;;15.20;99.10;;;;;;5057289;28;20177;-81
2021/09/12 05:30:44;;;;;;;25.33;10.80;;;15.20;99.10;;;;;;5056847;28;20231;-81
2021/09/12 05:33:10;;;;;;;22.88;10.63;;;15.20;99.10;;;;;;5058087;28;20173;-80
2021/09/12 05:35:36;;;;;;;20.07;10.37;;;15.10;99.10;;;;;;5057895;28;20232;-81
2021/09/12 05:38:02;;;;;;;33.57;12.43;;;15.10;99.10;;;;;;5055777;28;20192;-79
2021/09/12 05:40:28;;;;;;;19.17;9.70;;;15.10;99.10;;;;;;5055348;28;20930;-80
2021/09/12 05:42:54;;;;;;;22.50;10.55;;;15.10;99.10;;;;;;5054964;28;20585;-80
2021/09/12 05:45:21;;;;;;;22.23;11.00;;;15.10;99.10;;;;;;5055003;28;20189;-80
2021/09/12 05:47:47;;;;;;;23.55;11.18;;;15.10;99.10;;;;;;5054329;28;20637;-80
2021/09/12 05:50:13;;;;;;;26.13;11.52;;;15.00;99.10;;;;;;5054305;28;20173;-80
2021/09/12 05:52:39;;;;;;;29.63;12.80;;;15.00;99.10;;;;;;5054418;28;20687;-80
2021/09/12 05:55:05;;;;;;;24.53;12.00;;;15.00;99.10;;;;;;5054219;28;20732;-80
2021/09/12 05:57:31;;;;;;;30.67;12.00;;;15.00;99.10;;;;;;5054398;28;20486;-79
2021/09/12 05:59:57;;;;;;;23.90;10.90;;;15.10;99.10;;;;;;5054243;28;20173;-80
2021/09/12 06:02:23;;;;;;;25.40;11.80;;;15.20;99.10;;;;;;5054443;28;20420;-80
2021/09/12 06:04:49;;;;;;;37.30;13.83;;;15.20;99.10;;;;;;5053772;28;20189;-80
2021/09/12 06:07:15;;;;;;;27.43;12.43;;;15.20;99.10;;;;;;5054426;28;20423;-80
2021/09/12 06:09:41;;;;;;;27.33;12.80;;;15.20;99.10;;;;;;5054007;28;20416;-79
2021/09/12 06:12:08;;;;;;;24.27;11.63;;;15.20;99.10;;;;;;5054088;28;20173;-79
2021/09/12 06:14:35;;;;;;;29.00;13.57;;;15.30;99.10;;;;;;5054409;28;20184;-79
2021/09/12 06:17:07;;;;;;;24.75;13.13;;;15.30;99.10;;;;;;5053777;28;20204;-80
2021/09/12 06:19:37;;;;;;;29.73;12.40;;;15.30;99.10;;;;;;5054329;28;20169;-80
2021/09/12 06:22:05;;;;;;;28.20;13.07;;;15.20;99.10;;;;;;5054808;28;20165;-80
2021/09/12 06:24:31;;;;;;;24.63;12.27;;;15.30;99.10;;;;;;5053752;28;20173;-79
2021/09/12 06:26:56;;;;;;;33.90;12.80;;;15.30;99.10;;;;;;5053993;28;20585;-80
2021/09/12 06:29:22;;;;;;;23.57;12.60;;;15.30;99.10;;;;;;5054002;28;20180;-79
2021/09/12 06:31:48;;;;;;;21.77;10.87;;;15.40;99.10;;;;;;5053847;28;20169;-79
2021/09/12 06:34:14;;;;;;;26.92;12.88;;;15.50;99.10;;;;;;5053550;28;20407;-80
2021/09/12 06:36:40;;;;;;;23.48;10.23;;;15.60;99.10;;;;;;5053290;28;20655;-80
2021/09/12 06:39:06;;;;;;;23.73;10.70;;;15.70;99.10;;;;;;5053545;28;20169;-80
2021/09/12 06:41:31;;;;;;;26.10;11.43;;;15.80;99.10;;;;;;5053788;28;20289;-80
2021/09/12 06:43:57;;;;;;;23.90;10.43;;;15.90;99.10;;;;;;5053774;28;20169;-80
2021/09/12 06:46:23;;;;;;;21.30;9.57;;;16.00;99.10;;;;;;5053842;28;20208;-79
2021/09/12 06:48:49;;;;;;;17.90;9.67;;;16.00;99.10;;;;;;5053133;28;20404;-80
2021/09/12 06:51:15;;;;;;;19.77;9.40;;;16.00;99.10;;;;;;5052595;28;20771;-79
2021/09/12 06:53:41;;;;;;;18.97;10.23;;;16.00;99.10;;;;;;5053397;28;20464;-80
2021/09/12 06:56:06;;;;;;;19.15;9.65;;;16.00;99.10;;;;;;5053381;28;20196;-80
2021/09/12 06:58:32;;;;;;;23.40;10.17;;;15.80;99.10;;;;;;5053296;28;20201;-80
2021/09/12 07:00:58;;;;;;;24.10;9.90;;;15.80;99.10;;;;;;5053349;28;20169;-80
2021/09/12 07:03:25;;;;;;;20.03;9.40;;;15.90;99.10;;;;;;5052983;28;20173;-79
2021/09/12 07:05:51;;;;;;;14.45;8.30;;;16.00;99.10;;;;;;5053696;28;20438;-80
2021/09/12 07:08:17;;;;;;;19.10;8.32;;;16.00;99.10;;;;;;5053704;28;20772;-80
2021/09/12 07:10:43;;;;;;;16.17;7.80;;;16.00;99.10;;;;;;5052939;28;20176;-80
2021/09/12 07:13:09;;;;;;;17.88;8.90;;;16.00;99.10;;;;;;5053340;28;20423;-80
2021/09/12 07:15:35;;;;;;;18.83;9.03;;;16.10;99.10;;;;;;5053371;28;20200;-80
2021/09/12 07:18:00;;;;;;;19.27;9.27;;;16.10;99.10;;;;;;5053365;28;20463;-80
2021/09/12 07:20:26;;;;;;;17.47;9.30;;;16.10;99.10;;;;;;5054469;28;20926;-80
2021/09/12 07:22:52;;;;;;;18.73;8.43;;;16.10;99.10;;;;;;5053818;28;20420;-80
2021/09/12 07:25:18;;;;;;;15.50;8.20;;;16.20;99.10;;;;;;5053377;28;20847;-79
2021/09/12 07:27:43;;;;;;;16.13;8.07;;;16.20;99.10;;;;;;5052879;28;20415;-78
2021/09/12 07:30:13;;;;;;;17.60;9.20;;;16.30;99.10;;;;;;5053715;28;20858;-80
2021/09/12 07:32:40;;;;;;;15.88;7.68;;;16.40;99.10;;;;;;5053406;28;20426;-80
2021/09/12 07:35:06;;;;;;;18.83;7.57;;;16.40;99.10;;;;;;5053226;28;20204;-79
2021/09/12 07:37:32;;;;;;;14.73;7.88;;;16.40;99.10;;;;;;5052918;28;20254;-80
2021/09/12 07:39:59;;;;;;;15.52;8.35;;;16.50;99.10;;;;;;5053299;28;20537;-79
2021/09/12 07:42:24;;;;;;;12.00;6.93;;;16.60;99.10;;;;;;5053293;28;20176;-79
2021/09/12 07:44:50;;;;;;;12.10;6.90;;;16.60;99.10;;;;;;5053208;28;20185;-79
2021/09/12 07:47:16;;;;;;;14.80;6.90;;;16.70;99.10;;;;;;5053451;28;20486;-80
2021/09/12 07:49:42;;;;;;;11.53;6.30;;;16.80;99.10;;;;;;5053773;28;20461;-79
2021/09/12 07:52:08;;;;;;;10.67;6.20;;;16.90;99.10;;;;;;5053545;28;20422;-79
2021/09/12 07:54:34;;;;;;;18.10;7.95;;;17.00;99.10;;;;;;5052813;28;20196;-80
2021/09/12 07:57:01;;;;;;;9.63;5.73;;;17.00;99.10;;;;;;5052535;28;20193;-79
2021/09/12 07:59:27;;;;;;;11.07;6.63;;;17.20;99.10;;;;;;5053275;28;20419;-79
2021/09/12 08:01:54;;;;;;;14.63;8.00;;;17.20;99.10;;;;;;5052786;28;20174;-79
2021/09/12 08:04:20;;;;;;;14.95;6.80;;;17.30;99.10;;;;;;5056012;28;20173;-80
2021/09/12 08:06:45;;;;;;;11.03;6.57;;;17.40;99.10;;;;;;5057002;28;20177;-79
2021/09/12 08:09:11;;;;;;;12.97;6.90;;;17.40;99.10;;;;;;5056363;28;20420;-80
2021/09/12 08:11:37;;;;;;;12.50;7.37;;;17.50;99.10;;;;;;5056294;28;20419;-80
2021/09/12 08:14:04;;;;;;;15.60;7.70;;;17.50;99.10;;;;;;5056609;28;20415;-80
2021/09/12 08:16:29;;;;;;;13.90;7.47;;;17.60;99.10;;;;;;5055845;28;20193;-80
2021/09/12 08:18:55;;;;;;;14.00;6.97;;;17.70;99.10;;;;;;5056285;28;20645;-80
2021/09/12 08:21:21;;;;;;;11.10;6.27;;;17.80;98.90;;;;;;5056211;28;20839;-79
2021/09/12 08:23:47;;;;;;;11.57;7.13;;;17.90;97.90;;;;;;5056527;28;20557;-79
2021/09/12 08:26:13;;;;;;;10.45;6.65;;;17.80;98.10;;;;;;5056041;28;20602;-78
2021/09/12 08:28:39;;;;;;;10.23;5.85;;;17.90;99.10;;;;;;5056748;28;20173;-80
2021/09/12 08:31:05;;;;;;;9.70;5.50;;;18.00;99.00;;;;;;5056133;28;20315;-80
2021/09/12 08:33:31;;;;;;;9.60;6.03;;;18.20;98.00;;;;;;5056114;28;20502;-80
2021/09/12 08:35:57;;;;;;;10.17;6.43;;;18.20;97.50;;;;;;5056435;28;20434;-80
2021/09/12 08:38:22;;;;;;;9.47;6.00;;;18.30;96.90;;;;;;5055726;28;20290;-80
2021/09/12 08:40:55;;;;;;;13.63;6.90;;;18.30;97.50;;;;;;5055889;28;20412;-80
2021/09/12 08:43:21;;;;;;;13.07;8.07;;;18.40;97.80;;;;;;5055759;28;20432;-80
2021/09/12 08:45:48;;;;;;;11.53;6.10;;;18.50;96.80;;;;;;5055979;28;20200;-80
2021/09/12 08:48:14;;;;;;;7.53;5.55;;;18.60;96.50;;;;;;5055983;28;20408;-80
2021/09/12 08:50:40;;;;;;;10.90;6.40;;;18.70;97.10;;;;;;5055330;28;20168;-80
2021/09/12 08:53:06;;;;;;;9.63;6.33;;;18.80;96.60;;;;;;5055802;28;20199;-80
2021/09/12 08:55:32;;;;;;;10.33;5.87;;;19.00;96.60;;;;;;5055539;28;20451;-80
2021/09/12 08:57:59;;;;;;;15.10;6.27;;;19.20;95.70;;;;;;5055615;28;20451;-79
2021/09/12 09:00:26;;;;;;;9.55;5.30;;;19.40;95.10;;;;;;5055096;28;20904;-80
2021/09/12 09:03:03;;;;;;;14.13;5.43;;;19.50;95.20;;;;;;5055693;28;20177;-80
2021/09/12 09:05:32;;;;;;;11.57;5.75;;;19.70;94.30;;;;;;5055241;28;20572;-79
2021/09/12 09:08:11;;;;;;;10.82;5.18;;;19.80;93.90;;;;;;5055264;28;20542;-80
2021/09/12 09:10:45;;;;;;;9.00;4.68;;;19.90;91.60;;;;;;5055562;28;20168;-80
2021/09/12 09:13:38;;;;;;;12.13;5.30;;;20.00;91.90;;;;;;5054746;28;20172;-80
2021/09/12 09:16:16;;;;;;;6.65;4.63;;;20.10;90.80;;;;;;5054992;28;20193;-79
2021/09/12 09:18:42;;;;;;;6.90;4.07;;;20.30;90.20;;;;;;5054878;28;20169;-80
2021/09/12 09:21:31;;;;;;;11.40;4.50;;;20.40;88.50;;;;;;5054658;28;20177;-80
2021/09/12 09:24:07;;;;;;;10.48;5.45;;;20.50;89.50;;;;;;5055193;28;20415;-79
2021/09/12 09:26:37;;;;;;;5.53;3.55;;;20.70;88.80;;;;;;5054258;28;20211;-79
2021/09/12 09:29:03;;;;;;;8.35;5.10;;;20.80;87.40;;;;;;5054329;28;20160;-80
2021/09/12 09:31:29;;;;;;;6.60;4.13;;;20.90;85.20;;;;;;5054226;28;20172;-80
2021/09/12 09:33:54;;;;;;;7.17;4.53;;;21.10;85.60;;;;;;5054158;28;20548;-80
2021/09/12 09:36:20;;;;;;;6.70;4.50;;;21.20;84.50;;;;;;5053842;28;20438;-80
2021/09/12 09:38:47;;;;;;;7.80;3.70;;;21.40;83.90;;;;;;5054512;28;20208;-80
2021/09/12 09:41:17;;;;;;;8.52;4.60;;;21.40;83.70;;;;;;5054436;28;20423;-80
2021/09/12 09:43:48;;;;;;;9.77;4.30;;;21.50;83.30;;;;;;5054112;28;20166;-79
2021/09/12 09:46:33;;;;;;;6.35;3.75;;;21.80;82.70;;;;;;5054150;28;20279;-79
2021/09/12 09:49:17;;;;;;;5.75;4.00;;;21.90;80.50;;;;;;5053719;28;20811;-80
2021/09/12 09:51:44;;;;;;;6.82;3.83;;;22.00;79.60;;;;;;5053580;28;20195;-80
2021/09/12 09:54:10;;;;;;;7.45;3.78;;;22.20;78.70;;;;;;5053393;28;20181;-80
2021/09/12 09:56:36;;;;;;;5.05;2.90;;;22.30;76.40;;;;;;5053625;28;20528;-80
2021/09/12 09:59:02;;;;;;;6.68;2.80;;;22.50;75.80;;;;;;5053431;28;20553;-80
2021/09/12 10:01:29;;;;;;;8.20;2.85;;;22.60;76.40;;;;;;5053282;28;20169;-80
2021/09/12 10:03:56;;;;;;;2.67;2.10;;;22.80;71.90;;;;;;5053205;28;20170;-80
2021/09/12 10:06:23;;;;;;;10.73;6.15;;;22.80;71.40;;;;;;5052954;28;20197;-80
2021/09/12 10:08:49;;;;;;;13.10;10.63;;;22.90;72.10;;;;;;5053042;28;20237;-80
2021/09/12 10:11:16;;;;;;;48.03;24.77;;;23.00;67.30;;;;;;5052569;28;20185;-80
2021/09/12 10:13:43;;;;;;;20.95;10.95;;;23.10;68.70;;;;;;5052629;28;20200;-78
2021/09/12 10:16:10;;;;;;;52.83;35.63;;;23.30;64.60;;;;;;5052964;28;20288;-80
2021/09/12 10:18:39;;;;;;;3.15;2.22;;;23.40;64.80;;;;;;5052614;28;20562;-79
2021/09/12 10:21:27;;;;;;;2.90;2.17;;;23.20;63.50;;;;;;5053240;28;20169;-80
2021/09/12 10:24:06;;;;;;;3.38;2.40;;;23.20;64.90;;;;;;5052747;28;20647;-80
2021/09/12 10:26:38;;;;;;;3.20;2.03;;;23.30;63.70;;;;;;5052091;28;20184;-77
2021/09/12 10:29:05;;;;;;;8.95;2.65;;;23.40;63.40;;;;;;5052307;28;20161;-80
2021/09/12 10:31:34;;;;;;;4.00;2.40;;;23.50;63.90;;;;;;5052494;28;20173;-80
2021/09/12 10:34:06;;;;;;;3.53;2.10;;;23.60;64.20;;;;;;5052875;28;20247;-80
2021/09/12 10:36:32;;;;;;;3.85;3.20;;;23.50;63.10;;;;;;5052951;28;20211;-80
2021/09/12 10:39:25;;;;;;;5.00;2.40;;;23.40;64.60;;;;;;5053030;28;20551;-80
2021/09/12 10:42:09;;;;;;;2.10;1.95;;;23.60;64.80;;;;;;5052827;28;20462;-80
2021/09/12 10:44:36;;;;;;;6.95;2.47;;;23.70;61.70;;;;;;5052514;28;20659;-80
2021/09/12 10:47:06;;;;;;;2.38;1.73;;;23.70;63.50;;;;;;5052536;28;20177;-80
2021/09/12 10:49:32;;;;;;;2.65;2.20;;;24.00;63.10;;;;;;5052739;28;20669;-80
2021/09/12 10:51:58;;;;;;;3.13;2.10;;;24.30;60.60;;;;;;5053158;28;20177;-80
2021/09/12 10:54:24;;;;;;;3.80;2.20;;;24.30;60.20;;;;;;5052472;28;20435;-79
2021/09/12 10:57:07;;;;;;;5.00;2.60;;;24.40;60.30;;;;;;5053300;28;20458;-80
2021/09/12 10:59:33;;;;;;;3.88;2.72;;;24.50;62.10;;;;;;5053073;28;20633;-80
2021/09/12 11:02:00;;;;;;;3.08;1.95;;;24.60;60.10;;;;;;5051740;28;20170;-80
2021/09/12 11:04:33;;;;;;;2.50;1.80;;;24.70;59.80;;;;;;5051756;28;20173;-80
2021/09/12 11:07:02;;;;;;;2.88;1.80;;;24.70;59.70;;;;;;5051165;28;20157;-81
2021/09/12 11:09:28;;;;;;;4.80;2.47;;;24.80;58.90;;;;;;5052284;28;20177;-79
2021/09/12 11:12:05;;;;;;;5.55;2.70;;;24.90;59.20;;;;;;5053835;28;20187;-79
2021/09/12 11:14:32;;;;;;;6.03;2.83;;;24.90;60.50;;;;;;5052477;28;20165;-79
2021/09/12 11:17:07;;;;;;;5.05;2.00;;;25.10;59.10;;;;;;5052270;28;20197;-79
2021/09/12 11:19:33;;;;;;;2.60;1.75;;;25.10;57.20;;;;;;5052111;28;20172;-78
2021/09/12 11:21:59;;;;;;;5.00;2.10;;;25.20;58.00;;;;;;5052395;28;20173;-78
2021/09/12 11:24:27;;;;;;;4.18;2.55;;;25.20;58.40;;;;;;5051788;28;20416;-76
2021/09/12 11:27:06;;;;;;;2.92;1.80;;;25.30;59.80;;;;;;5051813;28;20182;-78
2021/09/12 11:29:35;;;;;;;3.95;2.38;;;25.40;58.40;;;;;;5051865;28;20314;-78
2021/09/12 11:32:04;;;;;;;4.10;2.22;;;25.30;58.30;;;;;;5052026;28;20200;-78
2021/09/12 11:34:30;;;;;;;7.18;2.35;;;25.40;57.90;;;;;;5051871;28;20173;-78
2021/09/12 11:37:02;;;;;;;4.38;2.40;;;25.50;57.90;;;;;;5053926;28;20205;-78
2021/09/12 11:39:33;;;;;;;10.07;2.20;;;25.70;58.80;;;;;;5055758;28;20169;-77
2021/09/12 11:42:04;;;;;;;5.43;3.03;;;25.90;57.00;;;;;;5055803;28;20162;-79
2021/09/12 11:44:35;;;;;;;5.07;2.60;;;26.10;58.30;;;;;;5055698;28;20173;-78
2021/09/12 11:47:06;;;;;;;4.45;2.45;;;26.20;57.70;;;;;;5056091;28;20172;-79
2021/09/12 11:49:32;;;;;;;3.95;2.45;;;26.30;56.60;;;;;;5055516;28;20162;-78
2021/09/12 11:51:58;;;;;;;4.03;2.45;;;26.30;57.70;;;;;;5056114;28;20177;-78
2021/09/12 11:54:28;;;;;;;6.83;2.50;;;26.50;56.20;;;;;;5057537;28;20185;-78
2021/09/12 11:56:54;;;;;;;4.43;2.42;;;26.70;57.50;;;;;;5056188;28;20455;-78
2021/09/12 11:59:21;;;;;;;10.03;2.80;;;26.80;56.30;;;;;;5056211;28;20172;-78
2021/09/12 12:01:49;;;;;;;6.95;2.50;;;26.80;55.70;;;;;;5056289;28;20173;-79
2021/09/12 12:04:16;;;;;;;4.10;2.22;;;26.80;56.70;;;;;;5055987;28;20169;-78
2021/09/12 12:06:47;;;;;;;6.15;3.42;;;27.00;59.10;;;;;;5056105;28;20200;-79
2021/09/12 12:09:17;;;;;;;5.03;2.85;;;26.90;56.40;;;;;;5055828;28;20251;-77
2021/09/12 12:11:46;;;;;;;3.67;2.10;;;27.00;55.50;;;;;;5055804;28;20180;-78
2021/09/12 12:14:21;;;;;;;2.80;2.20;;;27.20;54.50;;;;;;5055523;28;20184;-78
2021/09/12 12:16:47;;;;;;;5.88;2.03;;;27.20;52.90;;;;;;5055533;28;20197;-77
2021/09/12 12:19:15;;;;;;;4.97;2.45;;;27.30;55.00;;;;;;5055917;28;20649;-78
2021/09/12 12:21:44;;;;;;;7.50;2.50;;;27.40;54.70;;;;;;5055823;28;20180;-78
2021/09/12 12:24:21;;;;;;;3.38;2.28;;;27.40;52.10;;;;;;5055684;28;20705;-79
2021/09/12 12:26:50;;;;;;;2.78;2.05;;;27.40;53.80;;;;;;5055915;28;20314;-79
2021/09/12 12:29:30;;;;;;;3.75;2.20;;;27.60;52.60;;;;;;5055124;28;20263;-79
2021/09/12 12:31:59;;;;;;;3.60;2.38;;;27.70;52.00;;;;;;5055271;28;20164;-78
2021/09/12 12:34:58;;;;;;;3.17;2.03;;;27.70;53.60;;;;;;5055080;28;20180;-79
2021/09/12 12:37:27;;;;;;;3.75;2.60;;;27.80;53.80;;;;;;5037427;28;20208;-79